sensor_id;sensor_type;location;lat;lon;timestamp;pressure;altitude;pressure_sealevel;temperature;humidity
63306;BME280;50735;52.060;1.248;2022-12-20T00:01:16;100361.71;;;8.45;71.20
63306;BME280;50735;52.060;1.248;2022-12-20T00:03:43;100360.92;;;8.29;71.04
63306;BME280;50735;52.060;1.248;2022-12-20T00:06:11;100354.62;;;8.45;70.53
63306;BME280;50735;52.060;1.248;2022-12-20T00:08:38;100350.70;;;8.21;70.60
63306;BME280;50735;52.060;1.248;2022-12-20T00:11:07;100355.92;;;8.76;70.23
63306;BME280;50735;52.060;1.248;2022-12-20T00:13:35;100352.18;;;8.38;69.98
63306;BME280;50735;52.060;1.248;2022-12-20T00:16:04;100359.83;;;8.52;70.88
63306;BME280;50735;52.060;1.248;2022-12-20T00:18:32;100355.47;;;8.48;70.40
63306;BME280;50735;52.060;1.248;2022-12-20T00:20:59;100362.71;;;8.73;69.96
63306;BME280;50735;52.060;1.248;2022-12-20T00:23:26;100358.45;;;8.62;69.74
63306;BME280;50735;52.060;1.248;2022-12-20T00:25:59;100360.38;;;8.56;70.48
63306;BME280;50735;52.060;1.248;2022-12-20T00:28:26;100349.89;;;8.39;70.25
63306;BME280;50735;52.060;1.248;2022-12-20T00:30:53;100346.92;;;8.24;69.90
63306;BME280;50735;52.060;1.248;2022-12-20T00:33:20;100344.56;;;8.15;70.16
63306;BME280;50735;52.060;1.248;2022-12-20T00:35:48;100351.40;;;8.28;70.55
63306;BME280;50735;52.060;1.248;2022-12-20T00:38:15;100342.98;;;8.50;70.27
63306;BME280;50735;52.060;1.248;2022-12-20T00:40:42;100339.91;;;8.44;69.92
63306;BME280;50735;52.060;1.248;2022-12-20T00:43:09;100340.38;;;8.21;69.83
63306;BME280;50735;52.060;1.248;2022-12-20T00:45:36;100346.79;;;8.47;69.03
63306;BME280;50735;52.060;1.248;2022-12-20T00:48:03;100345.90;;;8.61;69.22
63306;BME280;50735;52.060;1.248;2022-12-20T00:50:30;100345.20;;;8.47;70.04
63306;BME280;50735;52.060;1.248;2022-12-20T00:52:57;100346.35;;;8.23;69.70
63306;BME280;50735;52.060;1.248;2022-12-20T00:55:23;100346.65;;;8.74;69.24
63306;BME280;50735;52.060;1.248;2022-12-20T00:57:51;100349.95;;;8.37;69.36
63306;BME280;50735;52.060;1.248;2022-12-20T01:00:18;100343.94;;;8.82;69.19
63306;BME280;50735;52.060;1.248;2022-12-20T01:02:44;100334.61;;;8.78;68.76
63306;BME280;50735;52.060;1.248;2022-12-20T01:05:12;100330.48;;;8.43;69.03
63306;BME280;50735;52.060;1.248;2022-12-20T01:07:39;100324.12;;;8.97;68.70
63306;BME280;50735;52.060;1.248;2022-12-20T01:10:07;100326.62;;;8.83;68.62
63306;BME280;50735;52.060;1.248;2022-12-20T01:12:34;100319.60;;;9.08;67.84
63306;BME280;50735;52.060;1.248;2022-12-20T01:15:01;100324.47;;;8.72;68.22
63306;BME280;50735;52.060;1.248;2022-12-20T01:17:28;100321.98;;;8.62;68.50
63306;BME280;50735;52.060;1.248;2022-12-20T01:19:54;100315.34;;;8.64;68.45
63306;BME280;50735;52.060;1.248;2022-12-20T01:22:21;100318.70;;;8.59;67.96
63306;BME280;50735;52.060;1.248;2022-12-20T01:24:47;100310.99;;;8.56;68.66
63306;BME280;50735;52.060;1.248;2022-12-20T01:27:15;100318.69;;;8.28;69.48
63306;BME280;50735;52.060;1.248;2022-12-20T01:29:41;100306.90;;;8.73;68.90
63306;BME280;50735;52.060;1.248;2022-12-20T01:32:08;100316.59;;;8.81;69.00
63306;BME280;50735;52.060;1.248;2022-12-20T01:34:34;100322.35;;;8.29;69.37
63306;BME280;50735;52.060;1.248;2022-12-20T01:37:02;100325.23;;;8.62;69.08
63306;BME280;50735;52.060;1.248;2022-12-20T01:39:28;100324.04;;;8.74;68.16
63306;BME280;50735;52.060;1.248;2022-12-20T01:41:55;100325.78;;;8.74;67.98
63306;BME280;50735;52.060;1.248;2022-12-20T01:44:57;100327.32;;;8.45;68.37
63306;BME280;50735;52.060;1.248;2022-12-20T01:47:25;100330.89;;;8.78;67.90
63306;BME280;50735;52.060;1.248;2022-12-20T01:49:55;100326.19;;;8.80;67.72
63306;BME280;50735;52.060;1.248;2022-12-20T01:52:27;100331.76;;;8.67;68.05
63306;BME280;50735;52.060;1.248;2022-12-20T01:55:03;100330.00;;;8.53;68.36
63306;BME280;50735;52.060;1.248;2022-12-20T01:57:35;100322.10;;;8.52;69.34
63306;BME280;50735;52.060;1.248;2022-12-20T02:00:04;100321.00;;;8.58;69.55
63306;BME280;50735;52.060;1.248;2022-12-20T02:02:32;100325.21;;;8.60;69.23
63306;BME280;50735;52.060;1.248;2022-12-20T02:04:59;100328.64;;;8.55;70.24
63306;BME280;50735;52.060;1.248;2022-12-20T02:07:27;100328.13;;;8.96;69.90
63306;BME280;50735;52.060;1.248;2022-12-20T02:09:58;100326.93;;;8.82;69.68
63306;BME280;50735;52.060;1.248;2022-12-20T02:12:30;100343.70;;;8.54;70.69
63306;BME280;50735;52.060;1.248;2022-12-20T02:15:10;100326.12;;;8.64;70.55
63306;BME280;50735;52.060;1.248;2022-12-20T02:17:47;100328.17;;;8.52;70.99
63306;BME280;50735;52.060;1.248;2022-12-20T02:21:31;100326.26;;;8.46;71.25
63306;BME280;50735;52.060;1.248;2022-12-20T02:24:25;100322.77;;;9.03;69.41
63306;BME280;50735;52.060;1.248;2022-12-20T02:27:31;100319.46;;;8.63;70.64
63306;BME280;50735;52.060;1.248;2022-12-20T02:30:04;100305.78;;;8.55;71.13
63306;BME280;50735;52.060;1.248;2022-12-20T02:32:36;100308.95;;;8.59;70.95
63306;BME280;50735;52.060;1.248;2022-12-20T02:35:06;100319.77;;;8.75;70.25
63306;BME280;50735;52.060;1.248;2022-12-20T02:37:33;100316.66;;;8.78;70.24
63306;BME280;50735;52.060;1.248;2022-12-20T02:40:01;100314.37;;;8.75;70.49
63306;BME280;50735;52.060;1.248;2022-12-20T02:42:31;100309.21;;;8.78;70.45
63306;BME280;50735;52.060;1.248;2022-12-20T02:45:02;100307.99;;;8.96;70.68
63306;BME280;50735;52.060;1.248;2022-12-20T02:47:34;100301.53;;;8.74;71.48
63306;BME280;50735;52.060;1.248;2022-12-20T02:50:07;100296.95;;;8.72;71.42
63306;BME280;50735;52.060;1.248;2022-12-20T02:52:34;100295.49;;;8.94;70.88
63306;BME280;50735;52.060;1.248;2022-12-20T02:55:02;100297.17;;;8.76;70.54
63306;BME280;50735;52.060;1.248;2022-12-20T02:57:35;100294.14;;;9.07;70.12
63306;BME280;50735;52.060;1.248;2022-12-20T03:00:07;100289.98;;;8.98;69.41
63306;BME280;50735;52.060;1.248;2022-12-20T03:02:36;100287.75;;;8.80;69.99
63306;BME280;50735;52.060;1.248;2022-12-20T03:05:04;100280.81;;;8.86;69.67
63306;BME280;50735;52.060;1.248;2022-12-20T03:07:32;100283.00;;;8.92;69.48
63306;BME280;50735;52.060;1.248;2022-12-20T03:10:00;100282.01;;;8.85;69.67
63306;BME280;50735;52.060;1.248;2022-12-20T03:12:26;100284.64;;;8.87;69.93
63306;BME280;50735;52.060;1.248;2022-12-20T03:14:54;100285.80;;;8.74;69.95
63306;BME280;50735;52.060;1.248;2022-12-20T03:17:20;100285.87;;;8.65;70.42
63306;BME280;50735;52.060;1.248;2022-12-20T03:19:47;100282.57;;;8.49;70.87
63306;BME280;50735;52.060;1.248;2022-12-20T03:22:14;100278.97;;;8.39;70.70
63306;BME280;50735;52.060;1.248;2022-12-20T03:24:40;100280.70;;;8.55;70.85
63306;BME280;50735;52.060;1.248;2022-12-20T03:27:07;100285.16;;;8.52;71.03
63306;BME280;50735;52.060;1.248;2022-12-20T03:29:34;100274.15;;;8.72;70.96
63306;BME280;50735;52.060;1.248;2022-12-20T03:32:01;100275.76;;;8.76;70.65
63306;BME280;50735;52.060;1.248;2022-12-20T03:34:28;100286.17;;;8.60;70.61
63306;BME280;50735;52.060;1.248;2022-12-20T03:36:55;100282.44;;;8.71;70.90
63306;BME280;50735;52.060;1.248;2022-12-20T03:39:22;100281.94;;;8.74;70.69
63306;BME280;50735;52.060;1.248;2022-12-20T03:41:49;100287.73;;;8.72;70.67
63306;BME280;50735;52.060;1.248;2022-12-20T03:44:16;100287.60;;;8.70;70.59
63306;BME280;50735;52.060;1.248;2022-12-20T03:46:43;100283.69;;;8.59;70.82
63306;BME280;50735;52.060;1.248;2022-12-20T03:49:10;100285.55;;;8.60;70.80
63306;BME280;50735;52.060;1.248;2022-12-20T03:51:37;100288.80;;;8.46;71.16
63306;BME280;50735;52.060;1.248;2022-12-20T03:54:03;100287.86;;;8.43;71.24
63306;BME280;50735;52.060;1.248;2022-12-20T03:56:30;100288.94;;;8.19;72.12
63306;BME280;50735;52.060;1.248;2022-12-20T03:58:57;100286.68;;;8.67;72.09
63306;BME280;50735;52.060;1.248;2022-12-20T04:01:27;100295.00;;;8.56;71.64
63306;BME280;50735;52.060;1.248;2022-12-20T04:03:53;100287.74;;;8.55;70.99
63306;BME280;50735;52.060;1.248;2022-12-20T04:06:22;100284.65;;;8.28;71.78
63306;BME280;50735;52.060;1.248;2022-12-20T04:08:48;100280.80;;;8.51;71.68
63306;BME280;50735;52.060;1.248;2022-12-20T04:11:16;100280.82;;;8.28;72.36
63306;BME280;50735;52.060;1.248;2022-12-20T04:13:43;100281.04;;;8.41;71.75
63306;BME280;50735;52.060;1.248;2022-12-20T04:16:10;100264.01;;;8.19;71.63
63306;BME280;50735;52.060;1.248;2022-12-20T04:18:36;100257.02;;;8.02;72.16
63306;BME280;50735;52.060;1.248;2022-12-20T04:21:04;100249.10;;;8.44;71.47
63306;BME280;50735;52.060;1.248;2022-12-20T04:23:31;100263.49;;;8.39;70.84
63306;BME280;50735;52.060;1.248;2022-12-20T04:25:58;100245.60;;;8.54;71.41
63306;BME280;50735;52.060;1.248;2022-12-20T04:28:26;100237.26;;;8.39;71.39
63306;BME280;50735;52.060;1.248;2022-12-20T04:30:53;100245.91;;;8.08;72.26
63306;BME280;50735;52.060;1.248;2022-12-20T04:33:20;100242.29;;;7.80;72.37
63306;BME280;50735;52.060;1.248;2022-12-20T04:35:47;100246.85;;;7.99;71.63
63306;BME280;50735;52.060;1.248;2022-12-20T04:38:14;100242.91;;;8.40;71.37
63306;BME280;50735;52.060;1.248;2022-12-20T04:40:41;100242.14;;;8.04;71.73
63306;BME280;50735;52.060;1.248;2022-12-20T04:43:08;100238.69;;;7.97;71.09
63306;BME280;50735;52.060;1.248;2022-12-20T04:45:35;100234.98;;;8.25;70.78
63306;BME280;50735;52.060;1.248;2022-12-20T04:48:02;100244.00;;;8.24;70.89
63306;BME280;50735;52.060;1.248;2022-12-20T04:50:29;100243.70;;;8.24;70.26
63306;BME280;50735;52.060;1.248;2022-12-20T04:52:56;100249.96;;;7.79;70.95
63306;BME280;50735;52.060;1.248;2022-12-20T04:55:23;100236.70;;;7.93;70.40
63306;BME280;50735;52.060;1.248;2022-12-20T04:57:50;100230.29;;;8.34;70.36
63306;BME280;50735;52.060;1.248;2022-12-20T05:00:18;100228.67;;;8.22;69.88
63306;BME280;50735;52.060;1.248;2022-12-20T05:02:44;100227.34;;;8.08;70.06
63306;BME280;50735;52.060;1.248;2022-12-20T05:05:11;100234.92;;;8.14;69.71
63306;BME280;50735;52.060;1.248;2022-12-20T05:07:38;100225.16;;;8.25;69.78
63306;BME280;50735;52.060;1.248;2022-12-20T05:10:06;100226.72;;;7.95;70.06
63306;BME280;50735;52.060;1.248;2022-12-20T05:12:33;100228.23;;;7.90;70.28
63306;BME280;50735;52.060;1.248;2022-12-20T05:15:00;100224.10;;;8.22;69.71
63306;BME280;50735;52.060;1.248;2022-12-20T05:17:26;100222.35;;;7.93;69.80
63306;BME280;50735;52.060;1.248;2022-12-20T05:19:53;100220.52;;;7.94;69.29
63306;BME280;50735;52.060;1.248;2022-12-20T05:22:21;100219.77;;;7.99;70.08
63306;BME280;50735;52.060;1.248;2022-12-20T05:24:47;100220.26;;;8.05;70.02
63306;BME280;50735;52.060;1.248;2022-12-20T05:27:14;100212.88;;;7.94;69.89
63306;BME280;50735;52.060;1.248;2022-12-20T05:29:41;100210.87;;;8.13;69.16
63306;BME280;50735;52.060;1.248;2022-12-20T05:32:08;100218.70;;;7.96;69.70
63306;BME280;50735;52.060;1.248;2022-12-20T05:34:36;100204.52;;;8.05;69.49
63306;BME280;50735;52.060;1.248;2022-12-20T05:37:02;100191.32;;;8.07;69.48
63306;BME280;50735;52.060;1.248;2022-12-20T05:39:29;100196.10;;;8.26;69.34
63306;BME280;50735;52.060;1.248;2022-12-20T05:41:56;100197.38;;;8.39;69.15
63306;BME280;50735;52.060;1.248;2022-12-20T05:44:23;100202.78;;;7.87;69.31
63306;BME280;50735;52.060;1.248;2022-12-20T05:46:50;100198.68;;;8.05;68.96
63306;BME280;50735;52.060;1.248;2022-12-20T05:49:16;100197.21;;;7.98;69.13
63306;BME280;50735;52.060;1.248;2022-12-20T05:51:43;100193.24;;;8.14;69.59
63306;BME280;50735;52.060;1.248;2022-12-20T05:54:10;100189.75;;;8.00;69.67
63306;BME280;50735;52.060;1.248;2022-12-20T05:56:37;100191.19;;;8.42;68.90
63306;BME280;50735;52.060;1.248;2022-12-20T05:59:04;100189.75;;;8.21;69.50
63306;BME280;50735;52.060;1.248;2022-12-20T06:01:30;100187.78;;;8.11;68.97
63306;BME280;50735;52.060;1.248;2022-12-20T06:03:57;100174.74;;;8.36;68.96
63306;BME280;50735;52.060;1.248;2022-12-20T06:06:25;100171.16;;;8.06;69.12
63306;BME280;50735;52.060;1.248;2022-12-20T06:08:52;100171.39;;;7.84;69.55
63306;BME280;50735;52.060;1.248;2022-12-20T06:11:18;100170.79;;;8.34;68.67
63306;BME280;50735;52.060;1.248;2022-12-20T06:13:45;100177.01;;;8.23;68.85
63306;BME280;50735;52.060;1.248;2022-12-20T06:16:12;100179.29;;;8.38;68.32
63306;BME280;50735;52.060;1.248;2022-12-20T06:18:38;100186.70;;;8.10;69.02
63306;BME280;50735;52.060;1.248;2022-12-20T06:21:06;100185.01;;;7.84;68.70
63306;BME280;50735;52.060;1.248;2022-12-20T06:23:33;100185.25;;;8.23;68.70
63306;BME280;50735;52.060;1.248;2022-12-20T06:25:59;100184.12;;;8.29;67.97
63306;BME280;50735;52.060;1.248;2022-12-20T06:28:26;100181.80;;;8.33;67.70
63306;BME280;50735;52.060;1.248;2022-12-20T06:30:56;100185.56;;;8.58;66.95
63306;BME280;50735;52.060;1.248;2022-12-20T06:33:23;100183.52;;;8.20;67.53
63306;BME280;50735;52.060;1.248;2022-12-20T06:35:51;100177.93;;;8.14;68.17
63306;BME280;50735;52.060;1.248;2022-12-20T06:38:18;100181.03;;;8.24;67.82
63306;BME280;50735;52.060;1.248;2022-12-20T06:40:45;100174.72;;;8.55;67.26
63306;BME280;50735;52.060;1.248;2022-12-20T06:43:11;100180.53;;;8.44;67.01
63306;BME280;50735;52.060;1.248;2022-12-20T06:45:38;100185.15;;;8.25;67.12
63306;BME280;50735;52.060;1.248;2022-12-20T06:48:05;100184.87;;;8.43;67.02
63306;BME280;50735;52.060;1.248;2022-12-20T06:50:31;100185.15;;;8.22;67.75
63306;BME280;50735;52.060;1.248;2022-12-20T06:52:58;100179.31;;;8.29;67.76
63306;BME280;50735;52.060;1.248;2022-12-20T06:55:26;100181.90;;;8.18;67.49
63306;BME280;50735;52.060;1.248;2022-12-20T06:57:53;100184.86;;;8.30;67.75
63306;BME280;50735;52.060;1.248;2022-12-20T07:00:20;100189.76;;;8.24;68.33
63306;BME280;50735;52.060;1.248;2022-12-20T07:02:47;100202.45;;;7.95;68.52
63306;BME280;50735;52.060;1.248;2022-12-20T07:05:14;100198.87;;;8.01;68.99
63306;BME280;50735;52.060;1.248;2022-12-20T07:07:41;100202.74;;;8.19;68.94
63306;BME280;50735;52.060;1.248;2022-12-20T07:10:08;100208.11;;;8.06;70.24
63306;BME280;50735;52.060;1.248;2022-12-20T07:12:35;100207.13;;;7.98;70.82
63306;BME280;50735;52.060;1.248;2022-12-20T07:15:02;100192.27;;;8.31;70.67
63306;BME280;50735;52.060;1.248;2022-12-20T07:17:29;100199.25;;;8.26;70.99
63306;BME280;50735;52.060;1.248;2022-12-20T07:19:56;100198.71;;;8.44;70.49
63306;BME280;50735;52.060;1.248;2022-12-20T07:22:23;100185.69;;;8.03;71.34
63306;BME280;50735;52.060;1.248;2022-12-20T07:24:49;100189.34;;;8.09;71.73
63306;BME280;50735;52.060;1.248;2022-12-20T07:27:16;100187.88;;;7.71;72.48
63306;BME280;50735;52.060;1.248;2022-12-20T07:29:43;100192.08;;;7.93;72.87
63306;BME280;50735;52.060;1.248;2022-12-20T07:32:11;100194.83;;;7.91;72.49
63306;BME280;50735;52.060;1.248;2022-12-20T07:34:38;100199.57;;;7.69;73.24
63306;BME280;50735;52.060;1.248;2022-12-20T07:37:05;100202.42;;;7.87;73.47
63306;BME280;50735;52.060;1.248;2022-12-20T07:39:31;100200.58;;;7.86;72.96
63306;BME280;50735;52.060;1.248;2022-12-20T07:41:58;100208.35;;;7.99;72.84
63306;BME280;50735;52.060;1.248;2022-12-20T07:44:25;100188.96;;;7.69;73.21
63306;BME280;50735;52.060;1.248;2022-12-20T07:46:52;100192.31;;;7.70;73.89
63306;BME280;50735;52.060;1.248;2022-12-20T07:49:18;100185.83;;;8.04;72.86
63306;BME280;50735;52.060;1.248;2022-12-20T07:51:48;100192.01;;;7.71;72.82
63306;BME280;50735;52.060;1.248;2022-12-20T07:54:18;100194.37;;;7.70;73.84
63306;BME280;50735;52.060;1.248;2022-12-20T07:56:50;100195.21;;;7.84;73.53
63306;BME280;50735;52.060;1.248;2022-12-20T07:59:22;100202.76;;;7.87;73.42
63306;BME280;50735;52.060;1.248;2022-12-20T08:01:50;100198.50;;;7.73;73.91
63306;BME280;50735;52.060;1.248;2022-12-20T08:04:19;100212.72;;;7.84;73.65
63306;BME280;50735;52.060;1.248;2022-12-20T08:06:47;100218.23;;;8.08;72.98
63306;BME280;50735;52.060;1.248;2022-12-20T08:09:15;100220.59;;;8.04;73.22
63306;BME280;50735;52.060;1.248;2022-12-20T08:11:46;100219.35;;;8.28;72.46
63306;BME280;50735;52.060;1.248;2022-12-20T08:14:16;100230.98;;;7.78;73.30
63306;BME280;50735;52.060;1.248;2022-12-20T08:16:44;100231.91;;;8.20;72.78
63306;BME280;50735;52.060;1.248;2022-12-20T08:19:11;100234.20;;;7.93;73.32
63306;BME280;50735;52.060;1.248;2022-12-20T08:21:38;100240.33;;;8.38;72.65
63306;BME280;50735;52.060;1.248;2022-12-20T08:24:05;100263.56;;;7.79;74.20
63306;BME280;50735;52.060;1.248;2022-12-20T08:26:36;100248.78;;;7.72;73.95
63306;BME280;50735;52.060;1.248;2022-12-20T08:29:03;100260.71;;;8.09;73.74
63306;BME280;50735;52.060;1.248;2022-12-20T08:31:30;100271.63;;;8.52;73.08
63306;BME280;50735;52.060;1.248;2022-12-20T08:33:58;100276.25;;;8.44;72.07
63306;BME280;50735;52.060;1.248;2022-12-20T08:36:24;100283.10;;;8.20;72.85
63306;BME280;50735;52.060;1.248;2022-12-20T08:38:51;100304.84;;;8.18;73.82
63306;BME280;50735;52.060;1.248;2022-12-20T08:41:18;100315.86;;;8.00;72.54
63306;BME280;50735;52.060;1.248;2022-12-20T08:43:44;100322.57;;;7.80;72.54
63306;BME280;50735;52.060;1.248;2022-12-20T08:46:11;100329.52;;;8.14;71.76
63306;BME280;50735;52.060;1.248;2022-12-20T08:48:38;100336.38;;;8.54;69.84
63306;BME280;50735;52.060;1.248;2022-12-20T08:51:08;100342.78;;;9.05;68.48
63306;BME280;50735;52.060;1.248;2022-12-20T08:53:36;100341.56;;;8.89;67.72
63306;BME280;50735;52.060;1.248;2022-12-20T08:56:05;100344.25;;;9.26;66.69
63306;BME280;50735;52.060;1.248;2022-12-20T08:58:32;100348.45;;;9.46;65.81
63306;BME280;50735;52.060;1.248;2022-12-20T09:00:59;100355.92;;;9.30;65.73
63306;BME280;50735;52.060;1.248;2022-12-20T09:03:29;100359.35;;;8.73;66.46
63306;BME280;50735;52.060;1.248;2022-12-20T09:05:56;100366.81;;;8.49;66.58
63306;BME280;50735;52.060;1.248;2022-12-20T09:08:24;100377.98;;;8.69;66.71
63306;BME280;50735;52.060;1.248;2022-12-20T09:10:51;100372.10;;;8.67;66.54
63306;BME280;50735;52.060;1.248;2022-12-20T09:13:18;100381.17;;;8.89;66.13
63306;BME280;50735;52.060;1.248;2022-12-20T09:15:45;100389.31;;;8.94;65.57
63306;BME280;50735;52.060;1.248;2022-12-20T09:18:12;100392.63;;;8.70;65.55
63306;BME280;50735;52.060;1.248;2022-12-20T09:20:41;100396.63;;;8.71;65.53
63306;BME280;50735;52.060;1.248;2022-12-20T09:23:08;100398.23;;;8.79;65.24
63306;BME280;50735;52.060;1.248;2022-12-20T09:25:35;100394.49;;;8.85;64.68
63306;BME280;50735;52.060;1.248;2022-12-20T09:28:01;100394.71;;;8.94;64.56
63306;BME280;50735;52.060;1.248;2022-12-20T09:30:28;100404.51;;;8.53;65.74
63306;BME280;50735;52.060;1.248;2022-12-20T09:32:54;100409.89;;;8.34;65.41
63306;BME280;50735;52.060;1.248;2022-12-20T09:35:21;100411.27;;;8.75;64.61
63306;BME280;50735;52.060;1.248;2022-12-20T09:37:48;100408.95;;;8.74;63.65
63306;BME280;50735;52.060;1.248;2022-12-20T09:40:17;100410.72;;;8.76;63.34
63306;BME280;50735;52.060;1.248;2022-12-20T09:42:47;100416.28;;;8.79;63.23
63306;BME280;50735;52.060;1.248;2022-12-20T09:45:22;100425.08;;;8.83;63.37
63306;BME280;50735;52.060;1.248;2022-12-20T09:47:50;100440.30;;;8.70;63.72
63306;BME280;50735;52.060;1.248;2022-12-20T09:50:17;100449.69;;;8.80;63.27
63306;BME280;50735;52.060;1.248;2022-12-20T09:52:53;100458.17;;;8.02;64.38
63306;BME280;50735;52.060;1.248;2022-12-20T09:55:30;100453.81;;;7.94;64.71
63306;BME280;50735;52.060;1.248;2022-12-20T09:58:14;100455.76;;;7.88;64.89
63306;BME280;50735;52.060;1.248;2022-12-20T10:00:48;100460.52;;;8.32;64.12
63306;BME280;50735;52.060;1.248;2022-12-20T10:03:19;100461.61;;;8.02;64.13
63306;BME280;50735;52.060;1.248;2022-12-20T10:05:51;100464.69;;;8.21;63.62
63306;BME280;50735;52.060;1.248;2022-12-20T10:08:43;100463.68;;;8.14;63.72
63306;BME280;50735;52.060;1.248;2022-12-20T10:11:20;100469.79;;;8.47;63.99
63306;BME280;50735;52.060;1.248;2022-12-20T10:13:57;100477.01;;;8.22;63.61
63306;BME280;50735;52.060;1.248;2022-12-20T10:16:35;100482.48;;;8.43;63.10
63306;BME280;50735;52.060;1.248;2022-12-20T10:19:14;100483.66;;;8.65;63.62
63306;BME280;50735;52.060;1.248;2022-12-20T10:21:50;100490.08;;;8.57;62.75
63306;BME280;50735;52.060;1.248;2022-12-20T10:24:20;100492.63;;;8.76;62.47
63306;BME280;50735;52.060;1.248;2022-12-20T10:26:50;100495.29;;;8.90;62.49
63306;BME280;50735;52.060;1.248;2022-12-20T10:29:17;100499.47;;;8.57;62.51
63306;BME280;50735;52.060;1.248;2022-12-20T10:31:44;100509.41;;;8.90;62.40
63306;BME280;50735;52.060;1.248;2022-12-20T10:34:11;100509.95;;;8.90;62.13
63306;BME280;50735;52.060;1.248;2022-12-20T10:36:37;100512.44;;;9.09;62.14
63306;BME280;50735;52.060;1.248;2022-12-20T10:39:06;100512.87;;;9.01;61.79
63306;BME280;50735;52.060;1.248;2022-12-20T10:41:47;100514.44;;;9.41;61.02
63306;BME280;50735;52.060;1.248;2022-12-20T10:44:18;100515.83;;;9.35;61.19
63306;BME280;50735;52.060;1.248;2022-12-20T10:46:48;100519.46;;;9.19;61.29
63306;BME280;50735;52.060;1.248;2022-12-20T10:49:26;100517.82;;;9.16;61.01
63306;BME280;50735;52.060;1.248;2022-12-20T10:51:54;100509.82;;;9.77;60.09
63306;BME280;50735;52.060;1.248;2022-12-20T10:54:22;100509.30;;;10.01;60.16
63306;BME280;50735;52.060;1.248;2022-12-20T10:56:54;100510.22;;;10.36;58.19
63306;BME280;50735;52.060;1.248;2022-12-20T10:59:28;100505.82;;;10.71;57.54
63306;BME280;50735;52.060;1.248;2022-12-20T11:01:56;100510.94;;;10.18;58.14
63306;BME280;50735;52.060;1.248;2022-12-20T11:04:26;100509.47;;;10.80;57.54
63306;BME280;50735;52.060;1.248;2022-12-20T11:06:54;100505.14;;;11.46;54.56
63306;BME280;50735;52.060;1.248;2022-12-20T11:09:26;100502.94;;;11.90;53.76
63306;BME280;50735;52.060;1.248;2022-12-20T11:11:58;100509.19;;;12.42;52.27
63306;BME280;50735;52.060;1.248;2022-12-20T11:14:25;100509.81;;;12.49;52.72
63306;BME280;50735;52.060;1.248;2022-12-20T11:16:53;100507.41;;;11.85;51.24
63306;BME280;50735;52.060;1.248;2022-12-20T11:19:32;100505.65;;;12.56;51.51
63306;BME280;50735;52.060;1.248;2022-12-20T11:22:12;100496.04;;;12.69;50.73
63306;BME280;50735;52.060;1.248;2022-12-20T11:24:47;100491.38;;;12.62;49.11
63306;BME280;50735;52.060;1.248;2022-12-20T11:27:22;100491.05;;;13.14;48.87
63306;BME280;50735;52.060;1.248;2022-12-20T11:30:06;100493.85;;;13.16;48.43
63306;BME280;50735;52.060;1.248;2022-12-20T11:32:46;100494.43;;;12.86;48.18
63306;BME280;50735;52.060;1.248;2022-12-20T11:35:19;100496.48;;;12.99;47.96
63306;BME280;50735;52.060;1.248;2022-12-20T11:37:53;100504.91;;;13.33;46.62
63306;BME280;50735;52.060;1.248;2022-12-20T11:40:30;100510.24;;;13.38;46.57
63306;BME280;50735;52.060;1.248;2022-12-20T11:43:10;100508.60;;;13.88;46.41
63306;BME280;50735;52.060;1.248;2022-12-20T11:45:47;100499.48;;;14.03;45.56
63306;BME280;50735;52.060;1.248;2022-12-20T11:48:34;100500.35;;;14.11;43.99
63306;BME280;50735;52.060;1.248;2022-12-20T11:51:03;100497.87;;;14.28;45.23
63306;BME280;50735;52.060;1.248;2022-12-20T11:53:38;100495.88;;;14.37;42.97
63306;BME280;50735;52.060;1.248;2022-12-20T11:56:12;100487.45;;;14.44;43.27
63306;BME280;50735;52.060;1.248;2022-12-20T11:58:46;100490.75;;;14.37;42.97
63306;BME280;50735;52.060;1.248;2022-12-20T12:01:18;100495.09;;;14.30;42.91
63306;BME280;50735;52.060;1.248;2022-12-20T12:03:58;100495.03;;;14.08;42.84
63306;BME280;50735;52.060;1.248;2022-12-20T12:06:29;100489.44;;;14.23;43.17
63306;BME280;50735;52.060;1.248;2022-12-20T12:09:05;100490.35;;;14.52;42.34
63306;BME280;50735;52.060;1.248;2022-12-20T12:11:37;100487.79;;;14.50;40.89
63306;BME280;50735;52.060;1.248;2022-12-20T12:14:08;100482.31;;;14.66;42.30
63306;BME280;50735;52.060;1.248;2022-12-20T12:16:44;100489.66;;;14.91;41.39
63306;BME280;50735;52.060;1.248;2022-12-20T12:19:14;100482.31;;;14.45;41.71
63306;BME280;50735;52.060;1.248;2022-12-20T12:21:45;100481.30;;;14.76;41.40
63306;BME280;50735;52.060;1.248;2022-12-20T12:24:20;100488.98;;;14.64;41.39
63306;BME280;50735;52.060;1.248;2022-12-20T12:26:48;100493.06;;;14.63;41.23
63306;BME280;50735;52.060;1.248;2022-12-20T12:29:17;100489.84;;;14.76;41.36
63306;BME280;50735;52.060;1.248;2022-12-20T12:31:48;100496.48;;;14.26;41.05
63306;BME280;50735;52.060;1.248;2022-12-20T12:34:29;100491.91;;;14.19;41.33
63306;BME280;50735;52.060;1.248;2022-12-20T12:37:15;100493.38;;;13.91;41.40
63306;BME280;50735;52.060;1.248;2022-12-20T12:40:01;100498.59;;;14.03;41.00
63306;BME280;50735;52.060;1.248;2022-12-20T12:42:46;100505.35;;;13.85;41.03
63306;BME280;50735;52.060;1.248;2022-12-20T12:45:20;100503.01;;;14.03;40.65
63306;BME280;50735;52.060;1.248;2022-12-20T12:47:51;100502.12;;;14.01;40.67
63306;BME280;50735;52.060;1.248;2022-12-20T12:50:23;100501.45;;;13.66;40.34
63306;BME280;50735;52.060;1.248;2022-12-20T12:52:53;100494.97;;;14.02;40.59
63306;BME280;50735;52.060;1.248;2022-12-20T12:55:39;100493.24;;;13.98;41.06
63306;BME280;50735;52.060;1.248;2022-12-20T12:58:30;100492.49;;;13.42;40.87
63306;BME280;50735;52.060;1.248;2022-12-20T13:00:59;100485.81;;;13.67;41.30
63306;BME280;50735;52.060;1.248;2022-12-20T13:03:38;100491.16;;;14.05;40.92
63306;BME280;50735;52.060;1.248;2022-12-20T13:08:46;100501.01;;;13.71;41.29
63306;BME280;50735;52.060;1.248;2022-12-20T13:11:28;100503.78;;;13.46;41.20
63306;BME280;50735;52.060;1.248;2022-12-20T13:14:10;100504.31;;;13.87;40.54